Flight Track Log - Related Links

Times and Time Zones

All times are in EDT time to prevent confusion due to time zone crossing. See the N81ER flight status page for this flight to view local times or setup timezone preferences in your user account.

Time Position Orientation Groundspeed Altitude Reporting Facility
EDT Latitude Longitude Course Direction KTS MPH feet Rate Location/Type
Fri 11:27:38 AM 42.6644 -83.4381 144° Southeast 156 180 1,700  Level Cleveland Center
Fri 11:33:42 AM 42.4950 -83.2730 195° South 318 366 17,300 2,692 Climbing FlightAware ADS-B
Fri 11:34:17 AM 42.4440 -83.2910 195° South 313 360 19,600 3,675 Climbing FlightAware ADS-B
Fri 11:35:02 AM 42.3810 -83.3140 195° South 311 358 22,200 3,247 Climbing FlightAware ADS-B
Fri 11:35:42 AM 42.3220 -83.3350 195° South 317 365 24,200 2,867 Climbing FlightAware ADS-B
Fri 11:36:32 AM 42.2530 -83.3600 195° South 318 366 26,500 2,612 Climbing FlightAware ADS-B
Fri 11:37:07 AM 42.2040 -83.3790 196° South 323 372 27,900 2,259 Climbing FlightAware ADS-B
Fri 11:37:57 AM 42.1320 -83.4050 195° South 330 380 29,700 2,200 Climbing FlightAware ADS-B
Fri 11:38:37 AM 42.0730 -83.4270 195° South 328 377 31,200 2,040 Climbing FlightAware ADS-B
Fri 11:39:37 AM 41.9860 -83.4590 195° South 331 381 33,100 1,832 Climbing FlightAware ADS-B
Fri 11:40:12 AM 41.9290 -83.4800 195° South 337 388 34,100 1,412 Climbing FlightAware ADS-B
Fri 11:41:02 AM 41.8530 -83.5070 195° South 347 399 35,100 1,267 Climbing FlightAware ADS-B
Fri 11:41:42 AM 41.7900 -83.5310 196° South 349 402 36,000 900 Climbing FlightAware ADS-B
Fri 11:42:22 AM 41.7370 -83.5490 194° South 350 403 36,300 1,200 Climbing FlightAware ADS-B
Fri 11:43:07 AM 41.6680 -83.5960 207° Southwest 335 386 37,700 1,760 Climbing FlightAware ADS-B
Fri 11:43:37 AM 41.6160 -83.6300 206° Southwest 334 384 38,500 1,125 Climbing FlightAware ADS-B
Fri 11:44:27 AM 41.5470 -83.6760 207° Southwest 339 390 39,200 758 Climbing FlightAware ADS-B
Fri 11:45:12 AM 41.4860 -83.7170 207° Southwest 345 397 39,700 533 Climbing FlightAware ADS-B
Fri 11:45:57 AM 41.4170 -83.7630 207° Southwest 357 411 40,000 225 Climbing FlightAware ADS-B
Fri 11:46:32 AM 41.3640 -83.7980 206° Southwest 372 428 40,000  Level FlightAware ADS-B
Fri 11:47:12 AM 41.3020 -83.8400 207° Southwest 382 440 40,000  Level FlightAware ADS-B
Fri 11:47:52 AM 41.2370 -83.8820 206° Southwest 389 448 40,000  Level FlightAware ADS-B
Fri 11:48:32 AM 41.1730 -83.9250 207° Southwest 390 449 40,000  Level FlightAware ADS-B
Fri 11:49:17 AM 41.1070 -83.9680 206° Southwest 387 445 40,000  Level FlightAware ADS-B
Fri 11:50:02 AM 41.0310 -84.0190 207° Southwest 384 442 40,000  Level FlightAware ADS-B
Fri 11:50:42 AM 40.9640 -84.0620 206° Southwest 387 445 40,000  Level FlightAware ADS-B
Fri 11:51:22 AM 40.9010 -84.1030 206° Southwest 390 449 40,000  Level FlightAware ADS-B
Fri 11:52:07 AM 40.8290 -84.1500 206° Southwest 393 452 40,000  Level FlightAware ADS-B
Fri 11:52:47 AM 40.7640 -84.1930 207° Southwest 383 441 40,000  Level FlightAware ADS-B
Fri 11:53:27 AM 40.7010 -84.2340 206° Southwest 381 438 40,000  Level FlightAware ADS-B
Fri 11:54:12 AM 40.6270 -84.2820 206° Southwest 385 443 40,000  Level FlightAware ADS-B
Fri 11:54:52 AM 40.5620 -84.3240 206° Southwest 387 445 40,000  Level FlightAware ADS-B
Fri 11:55:37 AM 40.4940 -84.3680 206° Southwest 385 443 40,000  Level FlightAware ADS-B
Fri 11:56:17 AM 40.4280 -84.4100 206° Southwest 388 447 40,000  Level FlightAware ADS-B
Fri 11:56:57 AM 40.3630 -84.4520 206° Southwest 389 448 40,000  Level FlightAware ADS-B
Fri 11:57:37 AM 40.3000 -84.4920 206° Southwest 390 449 40,000  Level FlightAware ADS-B
Fri 11:58:17 AM 40.2340 -84.5350 206° Southwest 385 443 40,000  Level FlightAware ADS-B
Fri 11:59:07 AM 40.1560 -84.5850 206° Southwest 382 440 40,000  Level FlightAware ADS-B
Fri 11:59:47 AM 40.0920 -84.6250 206° Southwest 387 445 40,000  Level FlightAware ADS-B
Fri 12:00:27 PM 40.0260 -84.6670 206° Southwest 393 452 40,000  Level FlightAware ADS-B
Fri 12:01:12 PM 39.9520 -84.7140 206° Southwest 390 449 40,000  Level FlightAware ADS-B
Fri 12:01:52 PM 39.8860 -84.7560 206° Southwest 386 444 40,000  Level FlightAware ADS-B
Fri 12:02:37 PM 39.8170 -84.8000 206° Southwest 390 449 40,000  Level FlightAware ADS-B
Fri 12:03:17 PM 39.7510 -84.8400 205° Southwest 395 455 40,000  Level FlightAware ADS-B
Fri 12:03:52 PM 39.6880 -84.8690 200° South 397 457 40,000  Level FlightAware ADS-B
Fri 12:04:37 PM 39.6120 -84.9040 200° South 398 458 40,000  Level FlightAware ADS-B
Fri 12:05:22 PM 39.5360 -84.9390 200° South 399 459 40,000 -71 Level FlightAware ADS-B
Fri 12:06:02 PM 39.4660 -84.9710 199° South 400 460 39,900 -800 Descending FlightAware ADS-B
Fri 12:06:37 PM 39.4070 -84.9970 199° South 405 466 39,000 -750 Descending FlightAware ADS-B
Fri 12:07:22 PM 39.3320 -85.0310 199° South 405 466 38,900 -1,453 Descending FlightAware ADS-B
Fri 12:08:12 PM 39.2530 -85.0670 199° South 369 425 36,700 -1,933 Descending FlightAware ADS-B
Fri 12:08:52 PM 39.1850 -85.0980 199° South 367 422 36,000 -442 Descending FlightAware ADS-B
Fri 12:09:47 PM 39.0990 -85.1360 199° South 372 428 36,000  Level FlightAware ADS-B
Fri 12:10:32 PM 39.0220 -85.1710 199° South 371 427 36,000  Level FlightAware ADS-B
Fri 12:11:12 PM 38.9540 -85.2010 199° South 378 435 36,000  Level FlightAware ADS-B
Fri 12:11:52 PM 38.8930 -85.2290 200° South 382 440 36,000  Level FlightAware ADS-B
Fri 12:12:52 PM 38.7880 -85.2760 199° South 383 441 36,000  Level FlightAware ADS-B
Fri 12:13:32 PM 38.7200 -85.3060 199° South 387 445 36,000  Level FlightAware ADS-B
Fri 12:14:12 PM 38.6530 -85.3350 199° South 379 436 36,000  Level FlightAware ADS-B
Fri 12:14:57 PM 38.5780 -85.3690 200° South 373 429 36,000  Level FlightAware ADS-B
Fri 12:15:37 PM 38.5130 -85.3970 199° South 370 426 36,000 -494 Level FlightAware ADS-B
Fri 12:16:22 PM 38.4430 -85.4290 200° South 369 425 35,300 -1,271 Descending FlightAware ADS-B
Fri 12:17:02 PM 38.3780 -85.4570 199° South 369 425 34,200 -1,553 Descending FlightAware ADS-B
Fri 12:17:47 PM 38.3020 -85.4910 199° South 375 432 33,100 -1,482 Descending FlightAware ADS-B
Fri 12:18:27 PM 38.2370 -85.5190 199° South 372 428 32,100 -825 Descending FlightAware ADS-B
Fri 12:19:07 PM 38.1720 -85.5480 199° South 371 427 32,000 -71 Descending FlightAware ADS-B
Fri 12:19:52 PM 38.0990 -85.5760 197° South 381 438 32,000  Level FlightAware ADS-B
Fri 12:20:32 PM 38.0290 -85.5880 188° South 388 447 32,000  Level FlightAware ADS-B
Fri 12:21:17 PM 37.9450 -85.6010 187° South 397 457 32,000  Level FlightAware ADS-B
Fri 12:21:57 PM 37.8720 -85.6110 186° South 399 459 32,000  Level FlightAware ADS-B
Fri 12:22:37 PM 37.7990 -85.6220 187° South 399 459 32,000  Level FlightAware ADS-B
Fri 12:23:22 PM 37.7210 -85.6330 186° South 396 456 32,000 -847 Level FlightAware ADS-B
Fri 12:24:02 PM 37.6460 -85.6440 187° South 390 449 30,800 -1,694 Descending FlightAware ADS-B
Fri 12:24:47 PM 37.5620 -85.6560 186° South 394 453 29,600 -1,553 Descending FlightAware ADS-B
Fri 12:25:27 PM 37.4920 -85.6660 186° South 405 466 28,600 -1,575 Descending FlightAware ADS-B
Fri 12:26:07 PM 37.4150 -85.6770 186° South 409 471 27,500 -988 Descending FlightAware ADS-B
Fri 12:26:52 PM 37.3370 -85.6880 186° South 412 474 27,200 -840 Descending FlightAware ADS-B
Fri 12:27:47 PM 37.2370 -85.7020 186° South 400 460 26,100 -695 Descending FlightAware ADS-B
Fri 12:28:27 PM 37.1750 -85.7100 186° South 400 460 26,100 -1,725 Level FlightAware ADS-B
Fri 12:29:07 PM 37.0890 -85.7230 187° South 387 445 23,800 -1,725 Descending FlightAware ADS-B
Fri 12:29:47 PM 37.0290 -85.7310 186° South 387 445 23,800 -600 Level FlightAware ADS-B
Fri 12:30:27 PM 36.9450 -85.7100 169° South 389 448 23,000 -565 Descending FlightAware ADS-B
Fri 12:31:12 PM 36.8760 -85.6960 171° South 389 448 23,000  Level FlightAware ADS-B
Fri 12:31:48 PM 36.7962 -85.6826 172° South 391 450 23,000 -358 Level FlightAware ADS-B
Fri 12:32:19 PM 36.7414 -85.6726 172° South 382 440 22,600 -1,082 Descending FlightAware ADS-B
Fri 12:32:49 PM 36.6891 -85.6633 172° South 380 437 21,900 -1,452 Descending FlightAware ADS-B
Fri 12:33:21 PM 36.6344 -85.6535 172° South 374 430 21,100 -1,500 Descending FlightAware ADS-B
Fri 12:33:37 PM 36.6069 -85.6507 175° South 365 420 20,700 -1,714 Descending FlightAware ADS-B
Fri 12:33:42 PM 36.5984 -85.6518 186° South 361 415 20,500 -1,846 Descending FlightAware ADS-B
Fri 12:33:50 PM 36.5858 -85.6558 194° South 355 409 20,300 -1,500 Descending FlightAware ADS-B
Fri 12:33:58 PM 36.5738 -85.6624 204° Southwest 349 402 20,100 -1,556 Descending FlightAware ADS-B
Fri 12:34:17 PM 36.5507 -85.6873 221° Southwest 339 390 19,600 -1,500 Descending FlightAware ADS-B
Fri 12:34:30 PM 36.5407 -85.7090 240° Southwest 334 384 19,300 -1,957 Descending FlightAware ADS-B
Fri 12:35:03 PM 36.5263 -85.7680 253° West 330 380 18,100 -2,438 Descending FlightAware ADS-B
Fri 12:35:34 PM 36.5133 -85.8250 254° West 319 367 16,700 -2,710 Descending FlightAware ADS-B
Fri 12:36:05 PM 36.5012 -85.8777 254° West 310 357 15,300 -2,710 Descending FlightAware ADS-B
Fri 12:36:36 PM 36.4892 -85.9304 254° West 302 348 13,900 -2,516 Descending FlightAware ADS-B
Fri 12:37:07 PM 36.4770 -85.9740 251° West 295 339 12,700 -1,091 Descending FlightAware ADS-B
Fri 12:37:42 PM 36.4600 -86.0230 247° West 295 339 12,700 -1,760 Level FlightAware ADS-B
Fri 12:38:22 PM 36.4260 -86.0860 236° Southwest 308 354 10,500 -1,553 Descending FlightAware ADS-B
Fri 12:39:07 PM 36.3970 -86.1470 239° Southwest 308 354 10,500  Level FlightAware ADS-B
Fri 12:39:47 PM 36.3720 -86.1980 239° Southwest 308 354 10,500 -1,765 Level FlightAware ADS-B
Fri 12:40:32 PM 36.3360 -86.2730 239° Southwest 278 320 8,000 -2,089 Descending FlightAware ADS-B
Fri 12:42:02 PM 36.2790 -86.3920 239° Southwest 266 306 5,800 -1,150 Descending FlightAware ADS-B
Fri 12:42:32 PM 36.2610 -86.4280 238° Southwest 266 306 5,700 -1,200 Descending FlightAware ADS-B
Fri 12:43:07 PM 36.2390 -86.4740 239° Southwest 257 296 4,500 -1,108 Descending FlightAware ADS-B
Fri 12:43:37 PM 36.2180 -86.5160 238° Southwest 259 298 4,500  Level FlightAware ADS-B
Fri 12:43:52 PM 36.2050 -86.5260 212° Southwest 258 297 4,500  Level FlightAware ADS-B
Fri 12:44:17 PM 36.1740 -86.5390 199° South 259 298 4,500  Level FlightAware ADS-B
Fri 12:44:47 PM 36.1430 -86.5530 200° South 259 298 4,500  Level FlightAware ADS-B
Fri 12:45:02 PM 36.1250 -86.5610 200° South 260 299 4,500 -900 Level FlightAware ADS-B
Fri 12:45:27 PM 36.0970 -86.5730 199° South 250 288 3,900 -1,636 Descending FlightAware ADS-B
Fri 12:45:57 PM 36.0640 -86.5890 201° Southwest 244 281 3,000 -1,636 Descending FlightAware ADS-B
Fri 12:46:22 PM 36.0390 -86.6000 200° South 235 270 2,400 -1,333 Descending FlightAware ADS-B
Fri 12:46:42 PM 36.0200 -86.6110 205° Southwest 220 253 2,000 -600 Descending FlightAware ADS-B
Fri 12:46:52 PM 36.0140 -86.6220 236° Southwest 199 229 2,100  Climbing FlightAware ADS-B
Fri 12:47:22 PM 36.0170 -86.6490 278° West 179 206 2,000 -218 Descending FlightAware ADS-B
Fri 12:47:47 PM 36.0230 -86.6770 285° West 170 196 1,900 -300 Descending FlightAware ADS-B
Fri 12:48:02 PM 36.0270 -86.6880 294° West 159 183 1,800 -600 Descending FlightAware ADS-B
Fri 12:48:17 PM 36.0370 -86.6970 324° Northwest 149 171 1,600 -800 Descending FlightAware ADS-B
Fri 12:48:32 PM 36.0450 -86.7010 338° Northwest 131 151 1,400 -600 Descending FlightAware ADS-B
Fri 12:48:47 PM 36.0540 -86.7020 355° North 134 154 1,300 -240 Descending FlightAware ADS-B
Fri 12:49:22 PM 36.0740 -86.7030 358° North 135 155 1,200 -171 Descending FlightAware ADS-B
Fri 12:57:00 PM 36.1167 -86.6667 141° Southeast  Level FlightAware Approximate
Fri 12:58:00 PM 36.1245 -86.6782 141° Southeast  Level Estimated
Fri 12:59:00 PM 36.1245 -86.6782 141° Southeast  Level Estimated
Fri 01:00:00 PM 36.1245 -86.6782 141° Southeast  Level Estimated
Fri 01:01:00 PM 36.1245 -86.6782 141° Southeast  Level Estimated
Fri 01:02:00 PM 36.1245 -86.6782 141° Southeast  Level Estimated
Fri 01:03:00 PM 36.1245 -86.6782 141° Southeast  Level Estimated
Fri 01:04:00 PM 36.1245 -86.6782 141° Southeast  Level Estimated
Fri 01:05:00 PM 36.1245 -86.6782 141° Southeast  Level Estimated
Fri 01:06:00 PM 36.1245 -86.6782 141° Southeast  Level Estimated
Fri 01:07:00 PM 36.1245 -86.6782 141° Southeast  Level Estimated

Login

Don't have an account? Register now (free) for customized features, flight alerts, and more!